INFL · Horizon Kinetics Inflation Beneficiaries ETF ETF
$55.43
-0.20 (-0.36%)
At close · Sep 4
Weekly off-exchange (dark pool / OTC) trading volume reported to FINRA under its OTC/ATS Transparency data. ATS volume is executed on alternating trading systems (dark pools); non-ATS OTC is other over-the-counter dealer volume. The off-exchange share is total off-exchange volume as a percentage of consolidated weekly trading volume for the same Monday–Friday week.
Off-Exchange Volume History
| Week Start | ATS Volume | Non-ATS OTC Volume | Total Off-Exchange | % of FINRA Weekly Volume |
|---|---|---|---|---|
| 2026-07-27 | 81,671 | 175,984 | 257,655 | 56.9% |
| 2026-07-20 | 44,957 | 339,568 | 384,525 | 76.1% |
| 2026-07-13 | 45,774 | 202,179 | 247,953 | 72.2% |
| 2026-07-06 | 138,664 | 250,329 | 388,993 | 64.5% |
| 2026-06-29 | 129,977 | 715,355 | 845,332 | 79.5% |
| 2026-06-22 | 198,880 | 817,385 | 1,016,265 | 73.4% |
| 2026-06-15 | 222,713 | 470,878 | 693,591 | 61.8% |
| 2026-06-08 | 379,806 | 761,206 | 1,141,012 | 53.8% |
| 2026-06-01 | 216,866 | 752,874 | 969,740 | 65.7% |
| 2026-05-25 | 229,845 | 789,073 | 1,018,918 | 67.1% |
| 2026-05-18 | 189,578 | 703,713 | 893,291 | 76.9% |
| 2026-05-11 | 530,216 | 1,659,841 | 2,190,057 | 66.0% |
| 2026-05-04 | 153,568 | 823,156 | 976,724 | 76.4% |
| 2026-04-27 | 145,437 | 770,123 | 915,560 | 75.2% |
| 2026-04-20 | 79,813 | 368,242 | 448,055 | 66.1% |
| 2026-04-13 | 139,200 | 660,905 | 800,105 | 71.7% |
| 2026-04-06 | 158,006 | 684,609 | 842,615 | 60.2% |
| 2026-03-30 | 118,572 | 1,258,453 | 1,377,025 | 76.0% |
| 2026-03-23 | 92,996 | 373,478 | 466,474 | 68.9% |
| 2026-03-16 | 61,491 | 1,229,835 | 1,291,326 | 85.2% |
| 2026-03-09 | 139,598 | 547,182 | 686,780 | 66.1% |
| 2026-03-02 | 80,822 | 731,743 | 812,565 | 70.9% |
| 2026-02-23 | 183,035 | 684,103 | 867,138 | 53.1% |
| 2026-02-16 | 82,227 | 374,782 | 457,009 | 56.1% |
| 2026-02-09 | 134,811 | 524,218 | 659,029 | 57.0% |
| 2026-02-02 | 198,298 | 1,390,592 | 1,588,890 | 69.1% |
| 2026-01-26 | 246,482 | 3,358,490 | 3,604,972 | 88.1% |
| 2026-01-19 | 459,155 | 753,222 | 1,212,377 | 66.3% |
| 2026-01-12 | 140,868 | 436,027 | 576,895 | 59.1% |
| 2026-01-05 | 177,461 | 1,147,071 | 1,324,532 | 85.4% |
| 2025-12-29 | 41,814 | 126,933 | 168,747 | 68.8% |
| 2025-12-22 | 51,523 | 165,443 | 216,966 | 63.0% |
| 2025-12-15 | 58,711 | 291,018 | 349,729 | 64.4% |
| 2025-12-08 | 52,739 | 179,987 | 232,726 | 56.6% |
| 2025-12-01 | 50,351 | 214,817 | 265,168 | 72.8% |
| 2025-11-24 | 50,135 | 156,198 | 206,333 | 73.4% |
| 2025-11-17 | 64,165 | 492,951 | 557,116 | 77.8% |
| 2025-11-10 | 81,796 | 317,551 | 399,347 | 66.2% |
| 2025-11-03 | 50,139 | 210,056 | 260,195 | 59.1% |
| 2025-10-27 | 48,881 | 220,871 | 269,752 | 67.6% |
| 2025-10-20 | 77,989 | 1,149,838 | 1,227,827 | 84.2% |
| 2025-10-13 | 82,229 | 222,101 | 304,330 | 60.9% |
| 2025-10-06 | 45,731 | 432,529 | 478,260 | 73.0% |
| 2025-09-29 | 103,413 | 357,048 | 460,461 | 61.6% |
| 2025-09-22 | 117,978 | 688,295 | 806,273 | 79.7% |
| 2025-09-15 | 89,224 | 379,812 | 469,036 | 70.6% |
| 2025-09-08 | 46,553 | 354,546 | 401,099 | 73.1% |
Showing 1–47 of 47 weeks